Time;durP1;ratioP1;P1;durP2;ratioP2;P2;SDS_P1;SDS_P2;PMS_P1;PMS_P2;Temp;Humidity;BMP_temperature;BMP_pressure;BME280_temperature;BME280_humidity;BME280_pressure;Samples;Min_cycle;Max_cycle;Signal;HPM_P1;HPM_P2
2022/07/23 00:00:40;;;;;;;6.53;5.47;;;;;;;21.97;48.97;64279.16;5040554;28;20197;-77
2022/07/23 00:03:09;;;;;;;4.97;4.13;;;;;;;21.91;48.88;64267.69;5042777;28;20247;-75
2022/07/23 00:05:36;;;;;;;4.20;3.92;;;;;;;21.91;49.10;64269.78;5042312;28;20216;-75
2022/07/23 00:08:03;;;;;;;5.10;4.60;;;;;;;21.76;49.72;64252.00;5042489;28;20537;-76
2022/07/23 00:10:30;;;;;;;4.82;3.97;;;;;;;21.81;49.34;64265.03;5041669;28;20209;-76
2022/07/23 00:12:57;;;;;;;5.35;4.60;;;;;;;21.83;48.53;64261.94;5042649;28;20282;-76
2022/07/23 00:15:24;;;;;;;9.35;4.57;;;;;;;21.88;48.30;64267.16;5042503;28;20228;-75
2022/07/23 00:17:51;;;;;;;5.40;4.40;;;;;;;21.93;47.33;64269.28;5042538;28;20221;-76
2022/07/23 00:20:20;;;;;;;4.78;4.25;;;;;;;21.94;47.24;64265.13;5040888;28;20201;-76
2022/07/23 00:22:48;;;;;;;6.43;4.75;;;;;;;21.99;47.32;64275.53;5042722;28;20277;-75
2022/07/23 00:25:15;;;;;;;4.65;4.00;;;;;;;21.99;47.63;64276.06;5042267;28;20197;-76
2022/07/23 00:27:42;;;;;;;5.82;3.97;;;;;;;22.03;47.11;64287.50;5041400;28;20429;-75
2022/07/23 00:30:10;;;;;;;4.80;4.30;;;;;;;22.03;46.49;64282.31;5043052;28;20197;-76
2022/07/23 00:32:46;;;;;;;9.07;4.40;;;;;;;21.83;47.43;64261.94;5042760;28;20221;-75
2022/07/23 00:35:13;;;;;;;6.22;4.25;;;;;;;21.78;47.59;64254.63;5042130;28;20223;-76
2022/07/23 00:37:41;;;;;;;6.13;4.00;;;;;;;21.83;47.11;64256.75;5030005;28;20229;-75
2022/07/23 00:40:10;;;;;;;5.00;4.07;;;;;;;21.82;47.01;64262.94;5022127;28;20265;-76
2022/07/23 00:42:36;;;;;;;10.95;4.78;;;;;;;21.74;47.20;64252.50;5024070;28;20225;-76
2022/07/23 00:45:04;;;;;;;4.90;4.38;;;;;;;21.75;46.79;64248.38;5026430;28;20248;-75
2022/07/23 00:47:31;;;;;;;8.75;4.63;;;;;;;21.76;47.45;64252.53;5044997;28;20229;-77
2022/07/23 00:49:58;;;;;;;5.68;5.13;;;;;;;21.69;48.10;64245.22;5045860;28;20204;-76
2022/07/23 00:52:25;;;;;;;4.60;4.10;;;;;;;21.62;47.91;64242.56;5046009;28;20526;-76
2022/07/23 00:54:54;;;;;;;6.47;4.20;;;;;;;21.59;48.09;64234.75;5043598;28;20233;-76
2022/07/23 00:57:21;;;;;;;8.75;4.00;;;;;;;21.58;47.94;64233.72;5046170;28;20217;-76
2022/07/23 00:59:48;;;;;;;4.60;4.25;;;;;;;21.56;47.75;64231.09;5045473;28;20328;-76
2022/07/23 01:02:15;;;;;;;4.38;3.97;;;;;;;21.46;49.06;64223.25;5045919;28;20221;-76
2022/07/23 01:04:42;;;;;;;6.22;4.15;;;;;;;21.39;49.20;64211.28;5044127;28;20209;-75
2022/07/23 01:07:09;;;;;;;4.40;4.07;;;;;;;21.37;48.37;64216.44;5045509;28;20518;-76
2022/07/23 01:09:36;;;;;;;5.25;3.53;;;;;;;21.34;47.89;64211.25;5045747;28;20201;-75
2022/07/23 01:12:06;;;;;;;6.72;3.90;;;;;;;21.31;48.12;64207.59;5045738;28;20225;-75
2022/07/23 01:14:32;;;;;;;9.05;4.20;;;;;;;21.20;48.28;64194.03;5043409;28;20229;-75
2022/07/23 01:16:59;;;;;;;5.07;3.90;;;;;;;21.26;48.55;64202.38;5045073;28;20229;-76
2022/07/23 01:19:26;;;;;;;4.47;4.07;;;;;;;21.16;49.32;64192.44;5045619;28;20269;-76
2022/07/23 01:21:56;;;;;;;5.25;4.80;;;;;;;21.24;49.56;64200.28;5043857;28;20261;-75
2022/07/23 01:24:25;;;;;;;4.18;3.85;;;;;;;21.24;48.98;64200.81;5045622;28;20494;-76
2022/07/23 01:26:52;;;;;;;6.55;4.22;;;;;;;21.18;49.94;64194.53;5045298;28;20529;-76
2022/07/23 01:29:20;;;;;;;8.82;4.22;;;;;;;21.10;49.73;64183.59;5045100;28;20262;-77
2022/07/23 01:31:48;;;;;;;4.60;3.60;;;;;;;21.08;50.21;64178.38;5043229;28;20240;-76
2022/07/23 01:34:15;;;;;;;5.57;4.40;;;;;;;20.98;50.77;64170.50;5045332;28;20291;-76
2022/07/23 01:36:42;;;;;;;4.97;4.30;;;;;;;20.98;50.81;64173.66;5045012;28;20225;-76
2022/07/23 01:39:09;;;;;;;5.60;4.15;;;;;;;20.91;50.46;64165.78;5045059;28;20498;-76
2022/07/23 01:41:37;;;;;;;5.18;4.68;;;;;;;20.84;51.15;64156.41;5042558;28;20205;-76
2022/07/23 01:44:04;;;;;;;6.68;4.15;;;;;;;20.83;50.59;64160.53;5044855;28;20482;-76
2022/07/23 01:46:30;;;;;;;6.68;4.35;;;;;;;20.72;51.13;64149.06;5044983;28;20201;-77
2022/07/23 01:48:57;;;;;;;4.63;4.18;;;;;;;20.72;50.28;64143.38;5043394;28;20201;-76
2022/07/23 01:51:24;;;;;;;7.20;4.50;;;;;;;20.74;49.36;64146.00;5044953;28;20201;-76
2022/07/23 01:53:51;;;;;;;4.45;4.03;;;;;;;20.73;49.39;64144.94;5043876;28;20459;-75
2022/07/23 01:56:20;;;;;;;4.05;3.72;;;;;;;20.83;49.09;64157.44;5044582;28;20240;-75
2022/07/23 01:58:48;;;;;;;4.60;4.28;;;;;;;20.78;49.36;64150.16;5042703;28;20209;-76
2022/07/23 02:01:15;;;;;;;5.50;4.07;;;;;;;20.73;49.13;64150.09;5044918;28;20193;-76
2022/07/23 02:03:42;;;;;;;7.57;4.90;;;;;;;20.68;49.36;64137.66;5045902;28;20418;-75
2022/07/23 02:06:09;;;;;;;4.53;4.13;;;;;;;20.71;49.52;64145.44;5044609;28;20243;-76
2022/07/23 02:08:36;;;;;;;8.18;4.50;;;;;;;20.68;49.50;64137.66;5042032;28;20222;-76
2022/07/23 02:11:03;;;;;;;7.47;4.50;;;;;;;20.69;49.29;64141.28;5044217;28;20564;-76
2022/07/23 02:13:30;;;;;;;5.68;4.70;;;;;;;20.67;48.92;64136.09;5044432;28;20224;-75
2022/07/23 02:15:58;;;;;;;4.85;4.15;;;;;;;20.63;48.98;64137.63;5042732;28;20197;-76
2022/07/23 02:18:25;;;;;;;5.28;4.00;;;;;;;20.63;50.11;64137.09;5024881;28;20222;-75
2022/07/23 02:20:52;;;;;;;11.82;4.43;;;;;;;20.65;50.15;64137.13;5024201;28;20252;-76
2022/07/23 02:23:19;;;;;;;5.45;4.13;;;;;;;20.63;51.25;64134.50;5024113;28;20264;-77
2022/07/23 02:25:46;;;;;;;4.75;4.32;;;;;;;20.57;51.16;64123.56;5031602;28;20213;-76
2022/07/23 02:28:13;;;;;;;5.15;4.43;;;;;;;20.52;50.88;64123.53;5044571;28;20217;-76
2022/07/23 02:30:39;;;;;;;6.20;4.28;;;;;;;20.53;50.87;64124.06;5044214;28;20201;-76
2022/07/23 02:33:08;;;;;;;5.55;4.47;;;;;;;20.52;51.79;64125.59;5044451;28;20533;-75
2022/07/23 02:35:35;;;;;;;4.97;4.47;;;;;;;20.48;51.69;64121.94;5042248;28;20233;-76
2022/07/23 02:38:02;;;;;;;8.10;5.07;;;;;;;20.37;51.91;64107.88;5044028;28;20862;-76
2022/07/23 02:40:29;;;;;;;7.53;4.65;;;;;;;20.32;51.51;64100.06;5043781;28;20197;-76
2022/07/23 02:42:56;;;;;;;5.00;4.28;;;;;;;20.28;51.58;64101.06;5042676;28;20580;-76
2022/07/23 02:45:22;;;;;;;6.25;4.60;;;;;;;20.30;51.93;64103.16;5042793;28;20204;-76
2022/07/23 02:47:49;;;;;;;5.20;4.63;;;;;;;20.29;51.44;64096.44;5043515;28;20271;-76
2022/07/23 02:50:17;;;;;;;11.25;4.72;;;;;;;20.37;51.90;64104.75;5043310;28;20212;-76
2022/07/23 02:52:44;;;;;;;5.93;4.30;;;;;;;20.38;51.83;64111.00;5042451;28;20225;-76
2022/07/23 02:55:11;;;;;;;5.35;4.10;;;;;;;20.32;51.63;64105.25;5042204;28;20232;-75
2022/07/23 02:57:38;;;;;;;5.45;4.30;;;;;;;20.34;51.93;64104.22;5042373;28;20260;-75
2022/07/23 03:00:07;;;;;;;6.85;4.28;;;;;;;20.37;51.87;64105.28;5043370;28;20206;-76
2022/07/23 03:02:34;;;;;;;7.45;4.65;;;;;;;20.31;52.80;64101.59;5041612;28;20225;-76
2022/07/23 03:05:01;;;;;;;4.40;4.00;;;;;;;20.33;51.90;64100.59;5042467;28;20473;-76
2022/07/23 03:07:29;;;;;;;7.03;4.38;;;;;;;20.28;52.71;64097.97;5043376;28;20257;-76
2022/07/23 03:09:56;;;;;;;4.82;4.45;;;;;;;20.30;52.40;64102.63;5043426;28;20385;-75
2022/07/23 03:12:23;;;;;;;7.57;4.30;;;;;;;20.30;53.06;64105.75;5041550;28;20225;-76
2022/07/23 03:14:50;;;;;;;9.10;4.35;;;;;;;20.26;52.10;64093.31;5042830;28;20232;-76
2022/07/23 03:17:17;;;;;;;10.65;4.40;;;;;;;20.31;52.69;64104.19;5042752;28;20219;-77
2022/07/23 03:19:43;;;;;;;6.38;4.60;;;;;;;20.30;52.71;64100.03;5041520;28;20237;-76
2022/07/23 03:22:10;;;;;;;4.25;3.95;;;;;;;20.30;53.29;64097.47;5043137;28;20217;-77
2022/07/23 03:24:57;;;;;;;9.40;4.00;;;;;;;20.27;54.84;64094.88;5043374;28;20197;-76
2022/07/23 03:27:25;;;;;;;4.20;3.90;;;;;;;20.28;55.08;64098.47;5023421;28;20396;-75
2022/07/23 03:29:53;;;;;;;11.35;4.85;;;;;;;20.31;55.14;64099.03;5036812;28;20205;-76
2022/07/23 03:32:20;;;;;;;8.70;4.50;;;;;;;20.27;53.27;64094.88;5042808;28;20217;-76
2022/07/23 03:34:47;;;;;;;5.07;4.57;;;;;;;20.35;52.87;64100.63;5043048;28;20236;-75
2022/07/23 03:37:14;;;;;;;6.43;4.40;;;;;;;20.35;52.76;64108.38;5042242;28;20217;-76
2022/07/23 03:39:43;;;;;;;8.05;4.07;;;;;;;20.37;52.47;64107.88;5043361;28;20201;-76
2022/07/23 03:42:10;;;;;;;5.70;4.40;;;;;;;20.40;53.54;64108.41;5042866;28;20430;-76
2022/07/23 03:44:38;;;;;;;7.35;4.82;;;;;;;20.42;53.15;64113.09;5044597;28;20393;-76
2022/07/23 03:47:06;;;;;;;6.15;4.68;;;;;;;20.46;53.80;64114.16;5042094;28;20399;-76
2022/07/23 03:49:33;;;;;;;5.22;4.43;;;;;;;20.51;54.39;64116.78;5043244;28;20201;-75
2022/07/23 03:52:00;;;;;;;6.95;4.70;;;;;;;20.56;55.19;64124.59;5042762;28;20256;-77
2022/07/23 03:54:27;;;;;;;9.75;5.03;;;;;;;20.62;54.30;64136.03;5042508;28;20455;-76
2022/07/23 03:56:55;;;;;;;5.22;4.28;;;;;;;20.65;53.78;64136.59;5040554;28;20251;-76
2022/07/23 03:59:22;;;;;;;11.93;5.03;;;;;;;20.67;55.02;64139.19;5042700;28;20200;-74
2022/07/23 04:01:49;;;;;;;13.60;10.40;;;;;;;20.76;55.11;64144.97;5042408;28;20425;-75
2022/07/23 04:04:16;;;;;;;52.63;36.80;;;;;;;20.81;55.14;64157.94;5041981;28;20193;-75
2022/07/23 04:06:43;;;;;;;12.55;8.20;;;;;;;20.87;55.58;64156.44;5041312;28;20224;-76
2022/07/23 04:09:10;;;;;;;9.40;5.00;;;;;;;20.93;55.17;64162.72;5042428;28;20221;-76
2022/07/23 04:11:37;;;;;;;7.20;5.93;;;;;;;20.99;55.63;64172.09;5042619;28;20189;-76
2022/07/23 04:14:05;;;;;;;5.30;4.68;;;;;;;20.92;55.12;64162.19;5041132;28;20461;-76
2022/07/23 04:16:32;;;;;;;11.07;4.72;;;;;;;21.00;55.00;64173.13;5044127;28;20251;-75
2022/07/23 04:18:59;;;;;;;5.97;5.18;;;;;;;21.04;54.66;64174.72;5046734;28;20227;-76
2022/07/23 04:21:26;;;;;;;14.90;8.15;;;;;;;21.18;55.20;64191.41;5046587;28;20502;-75
2022/07/23 04:23:53;;;;;;;10.73;5.28;;;;;;;21.26;57.10;64199.78;5044390;28;20205;-75
2022/07/23 04:26:21;;;;;;;12.88;5.82;;;;;;;21.14;57.91;64187.25;5045257;28;20220;-75
2022/07/23 04:28:48;;;;;;;20.23;16.50;;;;;;;21.26;56.86;64195.09;5046453;28;20249;-75
2022/07/23 04:31:16;;;;;;;6.97;5.50;;;;;;;21.36;57.25;64210.22;5046232;28;20194;-76
2022/07/23 04:33:43;;;;;;;8.00;6.00;;;;;;;21.37;57.96;64211.78;5045053;28;20291;-77
2022/07/23 04:36:10;;;;;;;7.63;5.63;;;;;;;21.52;59.34;64232.09;5046469;28;20307;-76
2022/07/23 04:38:36;;;;;;;8.48;5.70;;;;;;;21.55;61.62;64230.56;5046026;28;20560;-76
2022/07/23 04:41:03;;;;;;;10.27;6.30;;;;;;;21.40;64.00;64214.38;5045015;28;20255;-75
2022/07/23 04:43:30;;;;;;;10.38;6.30;;;;;;;21.20;65.63;64196.63;5045629;28;20237;-76
2022/07/23 04:45:57;;;;;;;8.38;5.53;;;;;;;21.38;65.11;64212.81;5046092;28;20197;-76
2022/07/23 04:48:25;;;;;;;7.57;6.28;;;;;;;21.46;64.69;64223.78;5046609;28;20217;-76
2022/07/23 04:50:52;;;;;;;10.00;5.95;;;;;;;21.61;64.38;64238.91;5044906;28;20209;-76
2022/07/23 04:53:19;;;;;;;8.20;6.07;;;;;;;21.74;65.28;64249.91;5047454;28;20221;-76
2022/07/23 04:55:46;;;;;;;6.60;6.00;;;;;;;21.74;65.85;64250.44;5046108;28;20232;-76
2022/07/23 04:58:13;;;;;;;7.70;6.78;;;;;;;21.73;64.62;64246.81;5045760;28;20565;-76
2022/07/23 05:00:41;;;;;;;11.75;6.72;;;;;;;21.77;63.28;64253.06;5042781;28;20256;-76
2022/07/23 05:03:07;;;;;;;10.05;7.00;;;;;;;21.61;64.00;64231.69;5045883;28;20232;-77
2022/07/23 05:05:36;;;;;;;15.45;7.32;;;;;;;21.51;64.12;64228.47;5045717;28;20201;-75
2022/07/23 05:08:03;;;;;;;9.48;7.47;;;;;;;21.40;64.21;64214.91;5044757;28;20225;-76
2022/07/23 05:10:30;;;;;;;16.27;7.63;;;;;;;21.51;64.14;64226.41;5044454;28;20202;-76
2022/07/23 05:12:57;;;;;;;9.90;7.20;;;;;;;21.70;63.93;64246.25;5045501;28;20216;-76
2022/07/23 05:15:24;;;;;;;12.80;7.10;;;;;;;21.95;62.83;64271.88;5046111;28;20275;-75
2022/07/23 05:17:51;;;;;;;8.45;6.97;;;;;;;22.17;61.79;64296.94;5043779;28;20587;-76
2022/07/23 05:20:18;;;;;;;8.05;6.72;;;;;;;22.09;61.85;64289.09;5045265;28;20548;-77
2022/07/23 05:22:46;;;;;;;11.20;8.27;;;;;;;22.13;64.13;64290.16;5045583;28;20221;-76
2022/07/23 05:25:19;;;;;;;10.77;7.65;;;;;;;22.33;62.62;64311.06;5045111;28;20201;-76
2022/07/23 05:27:45;;;;;;;8.95;7.22;;;;;;;22.34;63.80;64312.13;5042357;28;20223;-76
2022/07/23 05:30:13;;;;;;;11.50;7.25;;;;;;;22.24;63.54;64301.66;5045232;28;20197;-76
2022/07/23 05:32:40;;;;;;;10.73;8.52;;;;;;;22.40;63.17;64313.22;5045453;28;20232;-76
2022/07/23 05:35:08;;;;;;;11.43;7.45;;;;;;;22.58;61.79;64342.41;5045244;28;20240;-76
2022/07/23 05:37:35;;;;;;;12.52;8.18;;;;;;;22.83;60.64;64365.97;5044200;28;20280;-76
2022/07/23 05:40:06;;;;;;;14.27;8.25;;;;;;;23.08;58.95;64384.31;5045154;28;20251;-75
2022/07/23 05:42:33;;;;;;;13.52;7.53;;;;;;;23.35;58.41;64417.78;5044502;28;20244;-76
2022/07/23 05:44:59;;;;;;;14.32;7.50;;;;;;;23.60;57.60;64440.81;5043823;28;20213;-75
2022/07/23 05:47:26;;;;;;;18.48;7.68;;;;;;;23.69;57.73;64450.22;5044592;28;20224;-76
2022/07/23 05:49:53;;;;;;;12.95;8.05;;;;;;;23.77;57.33;64458.59;5044961;28;20324;-76
2022/07/23 05:52:20;;;;;;;11.45;7.32;;;;;;;23.98;56.49;64483.16;5044871;28;20217;-76
2022/07/23 05:54:47;;;;;;;11.57;6.63;;;;;;;24.10;56.03;64495.22;5043288;28;20233;-77
2022/07/23 05:57:15;;;;;;;13.88;7.07;;;;;;;24.15;55.72;64500.44;5044776;28;20220;-77
2022/07/23 05:59:42;;;;;;;7.82;6.53;;;;;;;24.30;54.15;64518.78;5045209;28;20200;-77
2022/07/23 06:02:09;;;;;;;8.75;6.65;;;;;;;24.47;53.62;64536.56;5044683;28;20241;-76
2022/07/23 06:04:36;;;;;;;9.80;6.90;;;;;;;24.38;52.57;64521.94;5043883;28;20216;-76
2022/07/23 06:07:02;;;;;;;10.18;6.80;;;;;;;24.54;52.20;64541.81;5044909;28;20280;-76
2022/07/23 06:09:29;;;;;;;12.65;6.45;;;;;;;24.72;51.90;64557.53;5044558;28;20205;-75
2022/07/23 06:11:56;;;;;;;9.45;6.13;;;;;;;24.76;50.66;64566.94;5042488;28;20263;-77
2022/07/23 06:14:25;;;;;;;12.90;6.25;;;;;;;24.83;51.10;64574.78;5044328;28;20201;-76
2022/07/23 06:16:51;;;;;;;8.30;5.72;;;;;;;25.00;49.45;64590.00;5044359;28;20282;-75
2022/07/23 06:19:18;;;;;;;8.52;6.20;;;;;;;25.15;48.51;64602.59;5044402;28;20220;-75
2022/07/23 06:21:45;;;;;;;11.35;6.72;;;;;;;25.26;48.39;64618.81;5039865;28;20221;-75
2022/07/23 06:24:12;;;;;;;8.13;6.65;;;;;;;25.40;47.01;64636.63;5044254;28;20220;-76
2022/07/23 06:26:39;;;;;;;10.85;5.38;;;;;;;25.57;46.64;64651.31;5044411;28;20260;-76
2022/07/23 06:29:06;;;;;;;7.10;5.55;;;;;;;25.80;46.17;64678.03;5044575;28;20197;-76
2022/07/23 06:31:34;;;;;;;6.63;5.82;;;;;;;25.98;46.46;64691.66;5041006;28;20444;-76
2022/07/23 06:34:01;;;;;;;8.50;6.20;;;;;;;25.93;44.88;64684.34;5044183;28;20200;-76
2022/07/23 06:36:27;;;;;;;11.15;5.80;;;;;;;25.94;46.32;64692.69;5043918;28;20644;-75
2022/07/23 06:38:54;;;;;;;9.48;5.50;;;;;;;26.03;45.27;64697.44;5041920;28;20263;-76
2022/07/23 06:41:22;;;;;;;11.07;5.85;;;;;;;26.07;44.68;64701.13;5043833;28;20537;-75
2022/07/23 06:43:49;;;;;;;10.35;5.65;;;;;;;26.17;44.12;64714.22;5043711;28;20205;-76
2022/07/23 06:46:16;;;;;;;10.40;5.57;;;;;;;26.06;43.58;64705.28;5043891;28;20532;-76
2022/07/23 06:48:44;;;;;;;8.98;5.93;;;;;;;26.14;43.97;64708.97;5041867;28;20217;-75
2022/07/23 06:51:11;;;;;;;14.77;7.28;;;;;;;26.06;44.81;64700.06;5043662;28;20204;-75
2022/07/23 06:53:38;;;;;;;16.75;6.82;;;;;;;26.26;43.44;64723.13;5043939;28;20268;-76
2022/07/23 06:56:05;;;;;;;9.40;6.25;;;;;;;26.49;43.25;64745.13;5043868;28;20548;-77
2022/07/23 06:58:32;;;;;;;11.18;5.60;;;;;;;26.68;42.92;64762.47;5042116;28;20229;-76
2022/07/23 07:00:59;;;;;;;13.30;6.75;;;;;;;26.22;45.10;64716.84;5043538;28;20197;-76
2022/07/23 07:03:25;;;;;;;7.10;5.88;;;;;;;26.23;44.55;64719.97;5043556;28;20256;-77
2022/07/23 07:05:54;;;;;;;10.85;6.75;;;;;;;26.28;44.72;64725.22;5042550;28;20212;-76
2022/07/23 07:08:21;;;;;;;7.80;6.03;;;;;;;26.38;44.47;64736.22;5043057;28;20217;-76
2022/07/23 07:10:48;;;;;;;10.43;6.20;;;;;;;26.53;44.10;64756.66;5043441;28;20236;-75
2022/07/23 07:13:14;;;;;;;8.38;6.55;;;;;;;26.67;44.18;64763.50;5043533;28;20256;-76
2022/07/23 07:15:42;;;;;;;11.63;7.03;;;;;;;26.66;45.04;64762.97;5042772;28;20304;-76
2022/07/23 07:18:08;;;;;;;9.90;6.60;;;;;;;26.74;45.70;64770.84;5044928;28;20225;-76
2022/07/23 07:20:35;;;;;;;11.10;6.65;;;;;;;26.84;45.18;64781.88;5044951;28;20198;-76
2022/07/23 07:23:04;;;;;;;12.43;6.32;;;;;;;26.95;43.45;64795.50;5044860;28;20372;-76
2022/07/23 07:25:31;;;;;;;9.25;6.55;;;;;;;27.09;42.71;64808.09;5041594;28;20421;-77
2022/07/23 07:27:58;;;;;;;8.60;6.32;;;;;;;27.26;40.47;64825.41;5042948;28;20292;-75
2022/07/23 07:30:25;;;;;;;10.93;6.30;;;;;;;27.26;44.28;64822.78;5043036;28;20376;-75
2022/07/23 07:32:52;;;;;;;6.57;5.93;;;;;;;27.46;41.45;64846.41;5042600;28;20217;-77
2022/07/23 07:35:19;;;;;;;11.32;6.20;;;;;;;27.56;40.69;64859.50;5040976;28;20346;-76
2022/07/23 07:37:46;;;;;;;7.13;6.38;;;;;;;27.59;40.35;64862.16;5042947;28;20443;-77
2022/07/23 07:40:14;;;;;;;6.40;5.63;;;;;;;27.91;40.98;64893.13;5042992;28;20208;-76
2022/07/23 07:42:48;;;;;;;6.68;5.95;;;;;;;27.99;40.45;64904.16;5040754;28;20221;-76
2022/07/23 07:45:15;;;;;;;10.90;5.70;;;;;;;27.92;40.63;64897.31;5042347;28;20264;-76
2022/07/23 07:47:42;;;;;;;7.07;5.93;;;;;;;28.11;40.20;64919.38;5042794;28;20221;-77
2022/07/23 07:50:10;;;;;;;6.68;6.00;;;;;;;28.24;41.57;64925.16;5042274;28;20201;-76
2022/07/23 07:52:37;;;;;;;17.77;7.32;;;;;;;28.33;39.65;64939.84;5041018;28;20221;-76
2022/07/23 07:55:04;;;;;;;6.90;6.15;;;;;;;28.09;39.60;64920.41;5042970;28;20197;-75
2022/07/23 07:57:33;;;;;;;8.35;5.97;;;;;;;27.96;39.74;64898.91;5042336;28;20285;-75
2022/07/23 08:00:00;;;;;;;9.20;6.45;;;;;;;27.95;39.80;64900.47;5042943;28;20255;-76
2022/07/23 08:02:28;;;;;;;8.68;7.07;;;;;;;27.93;40.91;64900.47;5040994;28;20233;-76
2022/07/23 08:04:57;;;;;;;10.65;6.60;;;;;;;28.09;39.92;64917.78;5042372;28;20201;-76
2022/07/23 08:07:23;;;;;;;13.50;6.50;;;;;;;28.14;40.87;64917.28;5042812;28;20221;-77
2022/07/23 08:09:50;;;;;;;13.90;7.00;;;;;;;28.23;39.34;64929.84;5040917;28;20544;-76
2022/07/23 08:12:17;;;;;;;8.55;6.72;;;;;;;28.50;40.02;64955.06;5043041;28;20217;-75
2022/07/23 08:14:45;;;;;;;6.75;6.25;;;;;;;28.65;38.55;64970.84;5042835;28;20201;-76
2022/07/23 08:17:12;;;;;;;11.50;7.18;;;;;;;28.74;38.62;64982.91;5042431;28;20228;-77
2022/07/23 08:19:39;;;;;;;16.42;6.25;;;;;;;28.97;37.86;65007.09;5040717;28;20217;-77
2022/07/23 08:22:06;;;;;;;7.18;6.53;;;;;;;28.99;37.70;65006.53;5043006;28;20309;-76
2022/07/23 08:24:33;;;;;;;16.35;6.38;;;;;;;29.15;38.16;65020.75;5042695;28;20203;-76
2022/07/23 08:27:00;;;;;;;11.15;6.50;;;;;;;29.20;37.64;65031.25;5042738;28;20521;-76
2022/07/23 08:29:27;;;;;;;13.60;6.55;;;;;;;29.28;38.03;65039.69;5041120;28;20198;-77
2022/07/23 08:31:55;;;;;;;6.78;6.05;;;;;;;29.42;38.43;65059.09;5043447;28;20436;-76
2022/07/23 08:34:22;;;;;;;11.02;6.80;;;;;;;29.45;36.94;65057.53;5042992;28;20232;-76
2022/07/23 08:36:49;;;;;;;6.70;5.88;;;;;;;29.43;37.03;65054.91;5040406;28;20592;-77
2022/07/23 08:39:16;;;;;;;9.30;6.47;;;;;;;29.64;36.98;65076.44;5042609;28;20198;-78
2022/07/23 08:41:44;;;;;;;8.40;6.20;;;;;;;29.79;34.98;65092.22;5042794;28;20225;-76
2022/07/23 08:44:11;;;;;;;11.23;6.97;;;;;;;29.62;36.13;65071.72;5042755;28;20208;-75
2022/07/23 08:46:40;;;;;;;8.38;6.47;;;;;;;29.69;36.51;65079.63;5040789;28;20209;-76
2022/07/23 08:49:09;;;;;;;11.45;6.78;;;;;;;29.68;36.76;65078.56;5042727;28;20214;-77
2022/07/23 08:51:36;;;;;;;11.23;7.13;;;;;;;29.84;36.37;65095.38;5042549;28;20514;-77
2022/07/23 08:54:03;;;;;;;10.57;7.03;;;;;;;29.88;36.77;65099.59;5042039;28;20261;-76
2022/07/23 08:56:30;;;;;;;9.88;6.47;;;;;;;29.87;35.87;65101.19;5041191;28;20240;-75
2022/07/23 08:58:58;;;;;;;14.07;7.25;;;;;;;30.07;35.87;65124.81;5042715;28;20259;-75
2022/07/23 09:01:25;;;;;;;11.13;5.97;;;;;;;30.09;35.80;65121.66;5042160;28;20228;-76
2022/07/23 09:03:52;;;;;;;7.75;6.53;;;;;;;30.35;35.28;65154.28;5043440;28;20225;-77
2022/07/23 09:06:20;;;;;;;10.73;6.25;;;;;;;30.48;33.12;65162.16;5046300;28;20271;-76
2022/07/23 09:08:47;;;;;;;8.32;5.53;;;;;;;30.39;34.05;65155.84;5046128;28;20202;-76
2022/07/23 09:11:17;;;;;;;9.80;6.03;;;;;;;30.76;34.75;65191.06;5046455;28;20427;-77
2022/07/23 09:13:48;;;;;;;9.20;6.53;;;;;;;31.00;33.76;65216.34;5044849;28;20247;-76
2022/07/23 09:16:17;;;;;;;7.25;5.80;;;;;;;31.05;32.63;65226.88;5046167;28;20271;-77
2022/07/23 09:18:46;;;;;;;11.18;5.57;;;;;;;31.21;32.20;65241.06;5046718;28;20286;-78
2022/07/23 09:21:17;;;;;;;8.10;6.30;;;;;;;31.33;33.01;65251.63;5046177;28;20532;-77
2022/07/23 09:23:48;;;;;;;6.68;6.07;;;;;;;31.60;33.58;65279.50;5044823;28;20525;-77
2022/07/23 09:26:20;;;;;;;6.82;6.10;;;;;;;31.62;33.15;65284.22;5045468;28;20272;-77
2022/07/23 09:28:59;;;;;;;7.22;6.55;;;;;;;31.79;31.67;65302.13;5045672;28;20197;-78
2022/07/23 09:31:32;;;;;;;10.13;6.05;;;;;;;31.64;31.98;65283.69;5040857;28;20209;-76
2022/07/23 09:34:12;;;;;;;10.23;6.53;;;;;;;31.73;31.27;65295.28;5046044;28;20190;-76
2022/07/23 09:36:39;;;;;;;8.00;6.78;;;;;;;31.35;31.90;65259.00;5045871;28;20213;-76
2022/07/23 09:39:08;;;;;;;13.70;6.28;;;;;;;31.42;31.63;65261.09;5045871;28;20397;-76
2022/07/23 09:41:38;;;;;;;7.80;6.22;;;;;;;31.64;30.14;65283.69;5043989;28;20205;-78
2022/07/23 09:44:10;;;;;;;6.85;5.60;;;;;;;31.60;28.79;65282.66;5045650;28;20194;-77
2022/07/23 09:46:39;;;;;;;6.35;5.75;;;;;;;31.87;29.58;65312.66;5045099;28;20197;-76
2022/07/23 09:49:13;;;;;;;7.50;6.72;;;;;;;31.99;31.41;65320.03;5044578;28;20201;-76
2022/07/23 09:51:47;;;;;;;7.35;6.40;;;;;;;31.99;31.16;65320.56;5044500;28;20209;-75
2022/07/23 09:54:29;;;;;;;7.55;5.93;;;;;;;32.07;31.34;65328.44;5045423;28;20405;-76
2022/07/23 09:56:57;;;;;;;7.03;6.22;;;;;;;32.18;31.41;65342.69;5045139;28;20233;-76
2022/07/23 09:59:26;;;;;;;8.48;6.40;;;;;;;32.33;29.89;65359.00;5043124;28;20197;-76
2022/07/23 10:01:56;;;;;;;12.80;11.40;;;;;;;32.42;30.15;65367.97;5045017;28;20217;-76
2022/07/23 10:04:24;;;;;;;15.35;6.53;;;;;;;32.44;27.82;65373.25;5044949;28;20204;-76
2022/07/23 10:06:53;;;;;;;6.47;4.85;;;;;;;32.54;27.79;65378.50;5045203;28;20276;-77
2022/07/23 10:09:26;;;;;;;9.20;5.03;;;;;;;32.55;27.60;65384.28;5044235;28;20471;-77
2022/07/23 10:11:58;;;;;;;6.40;5.30;;;;;;;32.63;27.10;65390.59;5045850;28;20445;-77
2022/07/23 10:14:27;;;;;;;7.38;6.03;;;;;;;32.73;26.96;65406.41;5045868;28;20202;-77
2022/07/23 10:16:54;;;;;;;7.88;6.03;;;;;;;32.63;26.93;65387.97;5042971;28;20521;-76
2022/07/23 10:19:22;;;;;;;8.77;5.10;;;;;;;32.62;26.77;65389.56;5044838;28;20197;-76
2022/07/23 10:21:53;;;;;;;10.38;5.70;;;;;;;32.71;27.69;65395.84;5044434;28;20259;-76
2022/07/23 10:24:31;;;;;;;12.52;5.82;;;;;;;32.87;27.18;65415.34;5044624;28;20239;-76
2022/07/23 10:27:12;;;;;;;12.35;5.20;;;;;;;32.77;27.26;65402.69;5042785;28;20355;-76
2022/07/23 10:29:48;;;;;;;9.35;5.70;;;;;;;32.73;26.16;65403.78;5044783;28;20189;-76
2022/07/23 10:32:34;;;;;;;10.80;6.25;;;;;;;32.89;26.44;65417.47;5044973;28;20264;-76
2022/07/23 10:35:11;;;;;;;9.95;6.03;;;;;;;33.15;28.46;65444.88;5042340;28;20267;-77
2022/07/23 10:37:40;;;;;;;7.60;5.40;;;;;;;33.29;26.84;65459.63;5044631;28;20355;-76
2022/07/23 10:40:14;;;;;;;6.43;5.70;;;;;;;33.33;25.72;65463.84;5044274;28;20204;-76
2022/07/23 10:42:41;;;;;;;5.93;5.40;;;;;;;33.39;25.93;65470.16;5044989;28;20267;-77
2022/07/23 10:45:26;;;;;;;12.25;5.72;;;;;;;33.56;25.83;65488.09;5042961;28;20226;-79
2022/07/23 10:47:54;;;;;;;9.20;5.72;;;;;;;33.64;24.60;65498.63;5044252;28;20224;-76
2022/07/23 10:50:24;;;;;;;8.60;5.22;;;;;;;33.84;25.68;65517.59;5044498;28;20382;-76
2022/07/23 10:53:20;;;;;;;5.70;5.13;;;;;;;33.90;24.27;65526.03;5042846;28;20276;-78
2022/07/23 10:55:52;;;;;;;13.88;5.97;;;;;;;33.84;22.57;65517.59;5039223;28;20198;-78
2022/07/23 10:58:45;;;;;;;7.68;5.07;;;;;;;33.42;23.57;65473.31;5045590;28;20236;-76
2022/07/23 11:01:36;;;;;;;7.53;5.20;;;;;;;33.40;21.23;65471.22;5046694;28;20208;-76
2022/07/23 11:04:07;;;;;;;7.78;5.40;;;;;;;33.53;21.79;65487.06;5046045;28;20402;-76
2022/07/23 11:07:12;;;;;;;10.75;5.10;;;;;;;33.80;20.57;65518.13;5049197;28;20189;-76
2022/07/23 11:09:50;;;;;;;7.97;4.43;;;;;;;34.04;20.52;65537.63;5045603;28;20193;-76
2022/07/23 11:12:37;;;;;;;7.35;4.90;;;;;;;34.16;18.58;65553.47;5042934;28;20257;-76
2022/07/23 11:15:07;;;;;;;8.60;4.53;;;;;;;34.29;20.04;65561.34;5043859;28;20198;-77
2022/07/23 11:17:35;;;;;;;10.68;5.07;;;;;;;34.36;20.42;65571.38;5043862;28;20275;-76
2022/07/23 11:20:18;;;;;;;9.20;4.85;;;;;;;34.52;22.16;65591.44;5041951;28;20255;-77
2022/07/23 11:22:51;;;;;;;11.40;5.35;;;;;;;34.67;21.58;65601.44;5043633;28;20284;-75
2022/07/23 11:25:33;;;;;;;12.85;6.55;;;;;;;34.30;21.50;65562.41;5043019;28;20267;-76
2022/07/23 11:28:14;;;;;;;9.00;5.65;;;;;;;34.05;20.82;65538.72;5043464;28;20237;-76
2022/07/23 11:30:44;;;;;;;7.47;5.32;;;;;;;34.20;21.15;65557.16;5041798;28;20201;-76
2022/07/23 11:33:20;;;;;;;16.65;5.28;;;;;;;34.32;20.42;65573.00;5043801;28;20256;-76
2022/07/23 11:35:49;;;;;;;7.88;4.88;;;;;;;34.29;19.96;65564.50;5043004;28;20333;-77
2022/07/23 11:38:18;;;;;;;12.20;4.78;;;;;;;34.51;19.59;65587.75;5041356;28;20225;-75